sensor_id;sensor_type;location;lat;lon;timestamp;temperature;humidity
11848;DHT22;5983;49.966;8.052;2022-07-10T00:00:30;18.00;99.90
11848;DHT22;5983;49.966;8.052;2022-07-10T00:02:58;18.00;99.90
11848;DHT22;5983;49.966;8.052;2022-07-10T00:05:26;17.90;99.90
11848;DHT22;5983;49.966;8.052;2022-07-10T00:07:53;17.90;99.90
11848;DHT22;5983;49.966;8.052;2022-07-10T00:10:21;17.80;99.90
11848;DHT22;5983;49.966;8.052;2022-07-10T00:12:51;17.80;99.90
11848;DHT22;5983;49.966;8.052;2022-07-10T00:15:18;17.80;99.90
11848;DHT22;5983;49.966;8.052;2022-07-10T00:17:46;17.70;99.90
11848;DHT22;5983;49.966;8.052;2022-07-10T00:20:14;17.70;99.90
11848;DHT22;5983;49.966;8.052;2022-07-10T00:22:42;17.60;99.90
11848;DHT22;5983;49.966;8.052;2022-07-10T00:25:10;17.60;99.90
11848;DHT22;5983;49.966;8.052;2022-07-10T00:27:38;17.50;99.90
11848;DHT22;5983;49.966;8.052;2022-07-10T00:30:08;17.50;99.90
11848;DHT22;5983;49.966;8.052;2022-07-10T00:32:36;17.40;99.90
11848;DHT22;5983;49.966;8.052;2022-07-10T00:35:04;17.40;99.90
11848;DHT22;5983;49.966;8.052;2022-07-10T00:37:32;17.40;99.90
11848;DHT22;5983;49.966;8.052;2022-07-10T00:39:59;17.40;99.90
11848;DHT22;5983;49.966;8.052;2022-07-10T00:42:27;17.40;99.90
11848;DHT22;5983;49.966;8.052;2022-07-10T00:44:54;17.40;99.90
11848;DHT22;5983;49.966;8.052;2022-07-10T00:47:22;17.40;99.90
11848;DHT22;5983;49.966;8.052;2022-07-10T00:49:49;17.30;99.90
11848;DHT22;5983;49.966;8.052;2022-07-10T00:52:17;17.30;99.90
11848;DHT22;5983;49.966;8.052;2022-07-10T00:54:47;17.30;99.90
11848;DHT22;5983;49.966;8.052;2022-07-10T00:57:16;17.20;99.90
11848;DHT22;5983;49.966;8.052;2022-07-10T00:59:44;17.20;99.90
11848;DHT22;5983;49.966;8.052;2022-07-10T01:02:13;17.20;99.90
11848;DHT22;5983;49.966;8.052;2022-07-10T01:04:42;17.20;99.90
11848;DHT22;5983;49.966;8.052;2022-07-10T01:07:09;17.20;99.90
11848;DHT22;5983;49.966;8.052;2022-07-10T01:09:37;17.20;99.90
11848;DHT22;5983;49.966;8.052;2022-07-10T01:12:05;17.30;99.90
11848;DHT22;5983;49.966;8.052;2022-07-10T01:14:33;17.20;99.90
11848;DHT22;5983;49.966;8.052;2022-07-10T01:17:05;17.30;99.90
11848;DHT22;5983;49.966;8.052;2022-07-10T01:19:32;17.30;99.90
11848;DHT22;5983;49.966;8.052;2022-07-10T01:22:01;17.30;99.90
11848;DHT22;5983;49.966;8.052;2022-07-10T01:24:28;17.30;99.90
11848;DHT22;5983;49.966;8.052;2022-07-10T01:26:55;17.30;99.90
11848;DHT22;5983;49.966;8.052;2022-07-10T01:29:22;17.30;99.90
11848;DHT22;5983;49.966;8.052;2022-07-10T01:31:49;17.20;99.90
11848;DHT22;5983;49.966;8.052;2022-07-10T01:34:16;17.20;99.90
11848;DHT22;5983;49.966;8.052;2022-07-10T01:36:44;17.20;99.90
11848;DHT22;5983;49.966;8.052;2022-07-10T01:39:12;17.20;99.90
11848;DHT22;5983;49.966;8.052;2022-07-10T01:41:40;17.20;99.90
11848;DHT22;5983;49.966;8.052;2022-07-10T01:44:07;17.20;99.90
11848;DHT22;5983;49.966;8.052;2022-07-10T01:46:33;17.20;99.90
11848;DHT22;5983;49.966;8.052;2022-07-10T01:49:01;17.10;99.90
11848;DHT22;5983;49.966;8.052;2022-07-10T01:51:28;17.10;99.90
11848;DHT22;5983;49.966;8.052;2022-07-10T01:53:55;17.10;99.90
11848;DHT22;5983;49.966;8.052;2022-07-10T01:56:26;17.00;99.90
11848;DHT22;5983;49.966;8.052;2022-07-10T01:58:52;17.00;99.90
11848;DHT22;5983;49.966;8.052;2022-07-10T02:01:19;17.00;99.90
11848;DHT22;5983;49.966;8.052;2022-07-10T02:03:46;16.90;99.90
11848;DHT22;5983;49.966;8.052;2022-07-10T02:06:30;16.90;99.90
11848;DHT22;5983;49.966;8.052;2022-07-10T02:08:57;16.90;99.90
11848;DHT22;5983;49.966;8.052;2022-07-10T02:11:25;16.80;99.90
11848;DHT22;5983;49.966;8.052;2022-07-10T02:13:52;16.90;99.90
11848;DHT22;5983;49.966;8.052;2022-07-10T02:16:19;16.90;99.90
11848;DHT22;5983;49.966;8.052;2022-07-10T02:18:46;16.90;99.90
11848;DHT22;5983;49.966;8.052;2022-07-10T02:21:13;17.00;99.90
11848;DHT22;5983;49.966;8.052;2022-07-10T02:23:40;17.00;99.90
11848;DHT22;5983;49.966;8.052;2022-07-10T02:26:07;17.00;99.90
11848;DHT22;5983;49.966;8.052;2022-07-10T02:28:35;17.00;99.90
11848;DHT22;5983;49.966;8.052;2022-07-10T02:31:02;17.00;99.90
11848;DHT22;5983;49.966;8.052;2022-07-10T02:33:29;17.00;99.90
11848;DHT22;5983;49.966;8.052;2022-07-10T02:35:56;17.00;99.90
11848;DHT22;5983;49.966;8.052;2022-07-10T02:38:23;16.90;99.90
11848;DHT22;5983;49.966;8.052;2022-07-10T02:40:50;16.90;99.90
11848;DHT22;5983;49.966;8.052;2022-07-10T02:43:17;16.90;99.90
11848;DHT22;5983;49.966;8.052;2022-07-10T02:45:45;16.80;99.90
11848;DHT22;5983;49.966;8.052;2022-07-10T02:48:12;16.80;99.90
11848;DHT22;5983;49.966;8.052;2022-07-10T02:50:40;16.80;99.90
11848;DHT22;5983;49.966;8.052;2022-07-10T02:53:07;16.70;99.90
11848;DHT22;5983;49.966;8.052;2022-07-10T02:55:34;16.70;99.90
11848;DHT22;5983;49.966;8.052;2022-07-10T02:58:01;16.60;99.90
11848;DHT22;5983;49.966;8.052;2022-07-10T03:00:29;16.60;99.90
11848;DHT22;5983;49.966;8.052;2022-07-10T03:02:57;16.50;99.90
11848;DHT22;5983;49.966;8.052;2022-07-10T03:05:24;16.50;99.90
11848;DHT22;5983;49.966;8.052;2022-07-10T03:07:51;16.50;99.90
11848;DHT22;5983;49.966;8.052;2022-07-10T03:10:19;16.40;99.90
11848;DHT22;5983;49.966;8.052;2022-07-10T03:12:46;16.40;99.90
11848;DHT22;5983;49.966;8.052;2022-07-10T03:15:14;16.40;99.90
11848;DHT22;5983;49.966;8.052;2022-07-10T03:17:41;16.30;99.90
11848;DHT22;5983;49.966;8.052;2022-07-10T03:20:10;16.30;99.90
11848;DHT22;5983;49.966;8.052;2022-07-10T03:22:38;16.20;99.90
11848;DHT22;5983;49.966;8.052;2022-07-10T03:25:06;16.20;99.90
11848;DHT22;5983;49.966;8.052;2022-07-10T03:27:33;16.20;99.90
11848;DHT22;5983;49.966;8.052;2022-07-10T03:30:00;16.20;99.90
11848;DHT22;5983;49.966;8.052;2022-07-10T03:32:27;16.10;99.90
11848;DHT22;5983;49.966;8.052;2022-07-10T03:34:54;16.10;99.90
11848;DHT22;5983;49.966;8.052;2022-07-10T03:37:22;16.00;99.90
11848;DHT22;5983;49.966;8.052;2022-07-10T03:39:49;16.10;99.90
11848;DHT22;5983;49.966;8.052;2022-07-10T03:42:16;16.00;99.90
11848;DHT22;5983;49.966;8.052;2022-07-10T03:44:44;16.00;99.90
11848;DHT22;5983;49.966;8.052;2022-07-10T03:47:11;16.00;99.90
11848;DHT22;5983;49.966;8.052;2022-07-10T03:49:38;16.00;99.90
11848;DHT22;5983;49.966;8.052;2022-07-10T03:52:05;15.90;99.90
11848;DHT22;5983;49.966;8.052;2022-07-10T03:54:34;15.80;99.90
11848;DHT22;5983;49.966;8.052;2022-07-10T03:57:01;15.80;99.90
11848;DHT22;5983;49.966;8.052;2022-07-10T03:59:49;15.70;99.90
11848;DHT22;5983;49.966;8.052;2022-07-10T04:02:16;15.70;99.90
11848;DHT22;5983;49.966;8.052;2022-07-10T04:04:43;15.60;99.90
11848;DHT22;5983;49.966;8.052;2022-07-10T04:07:10;15.60;99.90
11848;DHT22;5983;49.966;8.052;2022-07-10T04:09:39;15.60;99.90
11848;DHT22;5983;49.966;8.052;2022-07-10T04:12:08;15.60;99.90
11848;DHT22;5983;49.966;8.052;2022-07-10T04:14:37;15.60;99.90
11848;DHT22;5983;49.966;8.052;2022-07-10T04:17:04;15.60;99.90
11848;DHT22;5983;49.966;8.052;2022-07-10T04:19:32;15.70;99.90
11848;DHT22;5983;49.966;8.052;2022-07-10T04:21:59;15.70;99.90
11848;DHT22;5983;49.966;8.052;2022-07-10T04:24:26;15.80;99.90
11848;DHT22;5983;49.966;8.052;2022-07-10T04:26:55;15.80;99.90
11848;DHT22;5983;49.966;8.052;2022-07-10T04:29:22;15.80;99.90
11848;DHT22;5983;49.966;8.052;2022-07-10T04:31:49;15.80;99.90
11848;DHT22;5983;49.966;8.052;2022-07-10T04:34:15;15.80;99.90
11848;DHT22;5983;49.966;8.052;2022-07-10T04:36:43;15.90;99.90
11848;DHT22;5983;49.966;8.052;2022-07-10T04:39:12;15.90;99.90
11848;DHT22;5983;49.966;8.052;2022-07-10T04:41:39;15.90;99.90
11848;DHT22;5983;49.966;8.052;2022-07-10T04:44:08;16.00;99.90
11848;DHT22;5983;49.966;8.052;2022-07-10T04:46:34;16.10;99.90
11848;DHT22;5983;49.966;8.052;2022-07-10T04:49:02;16.20;99.90
11848;DHT22;5983;49.966;8.052;2022-07-10T04:51:28;16.20;99.90
11848;DHT22;5983;49.966;8.052;2022-07-10T04:53:56;16.20;99.90
11848;DHT22;5983;49.966;8.052;2022-07-10T04:56:23;16.20;99.90
11848;DHT22;5983;49.966;8.052;2022-07-10T04:58:49;16.20;99.90
11848;DHT22;5983;49.966;8.052;2022-07-10T05:01:18;16.30;99.90
11848;DHT22;5983;49.966;8.052;2022-07-10T05:03:44;16.30;99.90
11848;DHT22;5983;49.966;8.052;2022-07-10T05:06:11;16.30;99.90
11848;DHT22;5983;49.966;8.052;2022-07-10T05:08:38;16.30;99.90
11848;DHT22;5983;49.966;8.052;2022-07-10T05:11:05;16.30;99.90
11848;DHT22;5983;49.966;8.052;2022-07-10T05:13:32;16.30;99.90
11848;DHT22;5983;49.966;8.052;2022-07-10T05:15:59;16.40;99.90
11848;DHT22;5983;49.966;8.052;2022-07-10T05:18:27;16.40;99.90
11848;DHT22;5983;49.966;8.052;2022-07-10T05:20:54;16.50;99.90
11848;DHT22;5983;49.966;8.052;2022-07-10T05:23:21;16.50;99.90
11848;DHT22;5983;49.966;8.052;2022-07-10T05:25:49;16.50;99.90
11848;DHT22;5983;49.966;8.052;2022-07-10T05:28:16;16.50;99.90
11848;DHT22;5983;49.966;8.052;2022-07-10T05:30:43;16.50;99.90
11848;DHT22;5983;49.966;8.052;2022-07-10T05:33:10;16.50;99.90
11848;DHT22;5983;49.966;8.052;2022-07-10T05:35:38;16.60;99.90
11848;DHT22;5983;49.966;8.052;2022-07-10T05:38:05;16.60;99.90
11848;DHT22;5983;49.966;8.052;2022-07-10T05:40:32;16.70;99.90
11848;DHT22;5983;49.966;8.052;2022-07-10T05:42:59;16.70;99.90
11848;DHT22;5983;49.966;8.052;2022-07-10T05:45:27;16.80;99.90
11848;DHT22;5983;49.966;8.052;2022-07-10T05:47:53;16.80;99.90
11848;DHT22;5983;49.966;8.052;2022-07-10T05:50:20;16.80;99.90
11848;DHT22;5983;49.966;8.052;2022-07-10T05:52:49;16.90;99.90
11848;DHT22;5983;49.966;8.052;2022-07-10T05:55:16;16.80;99.90
11848;DHT22;5983;49.966;8.052;2022-07-10T05:57:42;16.90;99.90
11848;DHT22;5983;49.966;8.052;2022-07-10T06:00:10;17.00;99.90
11848;DHT22;5983;49.966;8.052;2022-07-10T06:02:38;17.10;99.90
11848;DHT22;5983;49.966;8.052;2022-07-10T06:05:05;17.20;99.90
11848;DHT22;5983;49.966;8.052;2022-07-10T06:07:33;17.20;99.90
11848;DHT22;5983;49.966;8.052;2022-07-10T06:10:02;17.20;99.90
11848;DHT22;5983;49.966;8.052;2022-07-10T06:12:31;17.10;99.90
11848;DHT22;5983;49.966;8.052;2022-07-10T06:14:58;17.10;99.90
11848;DHT22;5983;49.966;8.052;2022-07-10T06:17:25;17.10;99.90
11848;DHT22;5983;49.966;8.052;2022-07-10T06:19:52;17.10;99.90
11848;DHT22;5983;49.966;8.052;2022-07-10T06:22:20;17.20;99.90
11848;DHT22;5983;49.966;8.052;2022-07-10T06:25:04;17.30;99.90
11848;DHT22;5983;49.966;8.052;2022-07-10T06:27:33;17.40;99.90
11848;DHT22;5983;49.966;8.052;2022-07-10T06:30:01;17.60;99.90
11848;DHT22;5983;49.966;8.052;2022-07-10T06:32:28;17.80;99.90
11848;DHT22;5983;49.966;8.052;2022-07-10T06:34:55;17.90;99.90
11848;DHT22;5983;49.966;8.052;2022-07-10T06:37:22;18.10;99.90
11848;DHT22;5983;49.966;8.052;2022-07-10T06:39:49;18.10;99.90
11848;DHT22;5983;49.966;8.052;2022-07-10T06:42:18;18.10;99.90
11848;DHT22;5983;49.966;8.052;2022-07-10T06:44:45;18.10;99.90
11848;DHT22;5983;49.966;8.052;2022-07-10T06:47:14;18.00;99.90
11848;DHT22;5983;49.966;8.052;2022-07-10T06:50:01;17.90;99.90
11848;DHT22;5983;49.966;8.052;2022-07-10T06:52:31;17.90;99.90
11848;DHT22;5983;49.966;8.052;2022-07-10T06:54:59;18.00;99.90
11848;DHT22;5983;49.966;8.052;2022-07-10T06:57:28;18.00;99.90
11848;DHT22;5983;49.966;8.052;2022-07-10T06:59:55;18.10;99.90
11848;DHT22;5983;49.966;8.052;2022-07-10T07:02:22;18.10;99.90
11848;DHT22;5983;49.966;8.052;2022-07-10T07:04:49;18.20;99.90
11848;DHT22;5983;49.966;8.052;2022-07-10T07:07:16;18.30;99.90
11848;DHT22;5983;49.966;8.052;2022-07-10T07:09:43;18.30;99.90
11848;DHT22;5983;49.966;8.052;2022-07-10T07:12:10;18.30;99.90
11848;DHT22;5983;49.966;8.052;2022-07-10T07:14:42;18.30;99.90
11848;DHT22;5983;49.966;8.052;2022-07-10T07:17:09;18.30;99.90
11848;DHT22;5983;49.966;8.052;2022-07-10T07:19:37;18.30;99.90
11848;DHT22;5983;49.966;8.052;2022-07-10T07:22:23;18.30;99.90
11848;DHT22;5983;49.966;8.052;2022-07-10T07:25:09;18.30;99.90
11848;DHT22;5983;49.966;8.052;2022-07-10T07:27:38;18.40;99.90
11848;DHT22;5983;49.966;8.052;2022-07-10T07:30:10;18.60;99.90
11848;DHT22;5983;49.966;8.052;2022-07-10T07:32:42;18.70;99.90
11848;DHT22;5983;49.966;8.052;2022-07-10T07:35:12;18.80;99.90
11848;DHT22;5983;49.966;8.052;2022-07-10T07:37:42;18.90;99.90
11848;DHT22;5983;49.966;8.052;2022-07-10T07:40:11;18.90;99.90
11848;DHT22;5983;49.966;8.052;2022-07-10T07:42:40;19.00;99.90
11848;DHT22;5983;49.966;8.052;2022-07-10T07:45:09;19.10;99.90
11848;DHT22;5983;49.966;8.052;2022-07-10T07:47:43;19.20;99.90
11848;DHT22;5983;49.966;8.052;2022-07-10T07:50:12;19.20;99.90
11848;DHT22;5983;49.966;8.052;2022-07-10T07:52:40;19.30;99.90
11848;DHT22;5983;49.966;8.052;2022-07-10T07:55:08;19.40;99.90
11848;DHT22;5983;49.966;8.052;2022-07-10T07:57:36;19.40;99.90
11848;DHT22;5983;49.966;8.052;2022-07-10T08:00:04;19.50;99.90
11848;DHT22;5983;49.966;8.052;2022-07-10T08:02:34;19.50;99.90
11848;DHT22;5983;49.966;8.052;2022-07-10T08:05:02;19.50;99.90
11848;DHT22;5983;49.966;8.052;2022-07-10T08:07:36;19.60;99.90
11848;DHT22;5983;49.966;8.052;2022-07-10T08:10:05;19.70;99.90
11848;DHT22;5983;49.966;8.052;2022-07-10T08:12:35;19.90;99.90
11848;DHT22;5983;49.966;8.052;2022-07-10T08:15:02;20.00;99.90
11848;DHT22;5983;49.966;8.052;2022-07-10T08:17:30;20.10;99.90
11848;DHT22;5983;49.966;8.052;2022-07-10T08:19:58;20.30;99.90
11848;DHT22;5983;49.966;8.052;2022-07-10T08:22:25;20.40;99.90
11848;DHT22;5983;49.966;8.052;2022-07-10T08:24:52;20.40;99.90
11848;DHT22;5983;49.966;8.052;2022-07-10T08:27:19;20.40;99.90
11848;DHT22;5983;49.966;8.052;2022-07-10T08:29:47;20.40;99.90
11848;DHT22;5983;49.966;8.052;2022-07-10T08:32:14;20.30;99.90
11848;DHT22;5983;49.966;8.052;2022-07-10T08:34:41;20.30;99.90
11848;DHT22;5983;49.966;8.052;2022-07-10T08:37:09;20.50;99.90
11848;DHT22;5983;49.966;8.052;2022-07-10T08:39:37;20.70;99.90
11848;DHT22;5983;49.966;8.052;2022-07-10T08:42:06;21.00;99.90
11848;DHT22;5983;49.966;8.052;2022-07-10T08:44:34;21.10;99.90
11848;DHT22;5983;49.966;8.052;2022-07-10T08:47:02;21.20;99.90
11848;DHT22;5983;49.966;8.052;2022-07-10T08:49:30;21.30;99.90
11848;DHT22;5983;49.966;8.052;2022-07-10T08:52:03;21.60;99.90
11848;DHT22;5983;49.966;8.052;2022-07-10T08:54:33;21.80;99.90
11848;DHT22;5983;49.966;8.052;2022-07-10T08:57:03;22.20;99.90
11848;DHT22;5983;49.966;8.052;2022-07-10T08:59:30;22.50;99.90
11848;DHT22;5983;49.966;8.052;2022-07-10T09:01:58;22.60;99.10
11848;DHT22;5983;49.966;8.052;2022-07-10T09:04:26;22.50;98.30
11848;DHT22;5983;49.966;8.052;2022-07-10T09:06:55;22.30;97.20
11848;DHT22;5983;49.966;8.052;2022-07-10T09:09:22;22.00;97.00
11848;DHT22;5983;49.966;8.052;2022-07-10T09:11:56;21.80;97.50
11848;DHT22;5983;49.966;8.052;2022-07-10T09:14:27;21.80;97.30
11848;DHT22;5983;49.966;8.052;2022-07-10T09:16:54;21.80;97.30
11848;DHT22;5983;49.966;8.052;2022-07-10T09:19:23;21.90;97.40
11848;DHT22;5983;49.966;8.052;2022-07-10T09:21:52;22.20;97.30
11848;DHT22;5983;49.966;8.052;2022-07-10T09:24:21;22.50;97.00
11848;DHT22;5983;49.966;8.052;2022-07-10T09:26:59;22.70;95.80
11848;DHT22;5983;49.966;8.052;2022-07-10T09:29:29;22.80;95.30
11848;DHT22;5983;49.966;8.052;2022-07-10T09:31:57;22.90;95.00
11848;DHT22;5983;49.966;8.052;2022-07-10T09:34:38;23.00;94.80
11848;DHT22;5983;49.966;8.052;2022-07-10T09:37:23;23.10;94.80
11848;DHT22;5983;49.966;8.052;2022-07-10T09:39:57;23.10;95.00
11848;DHT22;5983;49.966;8.052;2022-07-10T09:42:31;23.10;95.10
11848;DHT22;5983;49.966;8.052;2022-07-10T09:45:16;23.20;95.20
11848;DHT22;5983;49.966;8.052;2022-07-10T09:47:45;23.40;95.30
11848;DHT22;5983;49.966;8.052;2022-07-10T09:50:30;23.50;94.60
11848;DHT22;5983;49.966;8.052;2022-07-10T09:53:00;23.60;93.90
11848;DHT22;5983;49.966;8.052;2022-07-10T09:55:29;23.60;92.80
11848;DHT22;5983;49.966;8.052;2022-07-10T09:57:59;23.60;92.80
11848;DHT22;5983;49.966;8.052;2022-07-10T10:00:28;23.60;92.30
11848;DHT22;5983;49.966;8.052;2022-07-10T10:02:57;23.60;91.80
11848;DHT22;5983;49.966;8.052;2022-07-10T10:05:36;23.70;91.90
11848;DHT22;5983;49.966;8.052;2022-07-10T10:08:13;23.70;91.90
11848;DHT22;5983;49.966;8.052;2022-07-10T10:10:45;23.80;91.70
11848;DHT22;5983;49.966;8.052;2022-07-10T10:13:17;23.80;90.70
11848;DHT22;5983;49.966;8.052;2022-07-10T10:15:47;23.80;90.60
11848;DHT22;5983;49.966;8.052;2022-07-10T10:18:17;23.90;90.60
11848;DHT22;5983;49.966;8.052;2022-07-10T10:20:46;23.90;90.50
11848;DHT22;5983;49.966;8.052;2022-07-10T10:23:14;23.70;90.90
11848;DHT22;5983;49.966;8.052;2022-07-10T10:25:46;23.60;90.90
11848;DHT22;5983;49.966;8.052;2022-07-10T10:28:15;23.40;91.00
11848;DHT22;5983;49.966;8.052;2022-07-10T10:30:47;23.30;91.10
11848;DHT22;5983;49.966;8.052;2022-07-10T10:33:42;23.20;91.00
11848;DHT22;5983;49.966;8.052;2022-07-10T10:36:12;23.10;90.50
11848;DHT22;5983;49.966;8.052;2022-07-10T10:39:10;23.10;90.40
11848;DHT22;5983;49.966;8.052;2022-07-10T10:41:40;23.10;90.40
11848;DHT22;5983;49.966;8.052;2022-07-10T10:44:28;23.30;90.40
11848;DHT22;5983;49.966;8.052;2022-07-10T10:47:00;23.60;90.30
11848;DHT22;5983;49.966;8.052;2022-07-10T10:49:54;23.80;89.30
11848;DHT22;5983;49.966;8.052;2022-07-10T10:52:27;24.00;88.80
11848;DHT22;5983;49.966;8.052;2022-07-10T10:55:15;24.10;87.30
11848;DHT22;5983;49.966;8.052;2022-07-10T10:57:43;24.20;86.10
11848;DHT22;5983;49.966;8.052;2022-07-10T11:00:33;24.30;85.80
11848;DHT22;5983;49.966;8.052;2022-07-10T11:03:21;24.40;84.90
11848;DHT22;5983;49.966;8.052;2022-07-10T11:05:50;24.50;84.50
11848;DHT22;5983;49.966;8.052;2022-07-10T11:08:39;24.50;84.40
11848;DHT22;5983;49.966;8.052;2022-07-10T11:11:37;24.40;83.80
11848;DHT22;5983;49.966;8.052;2022-07-10T11:14:08;24.50;83.60
11848;DHT22;5983;49.966;8.052;2022-07-10T11:16:46;24.50;83.60
11848;DHT22;5983;49.966;8.052;2022-07-10T11:19:23;24.60;83.70
11848;DHT22;5983;49.966;8.052;2022-07-10T11:21:58;24.90;83.70
11848;DHT22;5983;49.966;8.052;2022-07-10T11:24:42;25.20;81.40
11848;DHT22;5983;49.966;8.052;2022-07-10T11:27:36;25.40;81.00
11848;DHT22;5983;49.966;8.052;2022-07-10T11:30:18;25.60;81.20
11848;DHT22;5983;49.966;8.052;2022-07-10T11:32:47;25.80;80.70
11848;DHT22;5983;49.966;8.052;2022-07-10T11:35:15;25.90;79.90
11848;DHT22;5983;49.966;8.052;2022-07-10T11:37:52;25.90;78.70
11848;DHT22;5983;49.966;8.052;2022-07-10T11:40:20;25.80;78.30
11848;DHT22;5983;49.966;8.052;2022-07-10T11:42:51;25.60;78.40
11848;DHT22;5983;49.966;8.052;2022-07-10T11:45:27;25.50;78.70
11848;DHT22;5983;49.966;8.052;2022-07-10T11:47:57;25.50;80.10
11848;DHT22;5983;49.966;8.052;2022-07-10T11:50:26;25.60;80.80
11848;DHT22;5983;49.966;8.052;2022-07-10T11:52:54;25.60;79.30
11848;DHT22;5983;49.966;8.052;2022-07-10T11:55:22;25.70;79.50
11848;DHT22;5983;49.966;8.052;2022-07-10T11:57:50;25.70;79.20
11848;DHT22;5983;49.966;8.052;2022-07-10T12:00:38;25.60;79.10
11848;DHT22;5983;49.966;8.052;2022-07-10T12:03:20;25.60;78.90
11848;DHT22;5983;49.966;8.052;2022-07-10T12:06:04;25.40;78.20
11848;DHT22;5983;49.966;8.052;2022-07-10T12:08:46;25.30;78.40
11848;DHT22;5983;49.966;8.052;2022-07-10T12:11:17;25.20;78.60
11848;DHT22;5983;49.966;8.052;2022-07-10T12:13:49;25.10;80.60
11848;DHT22;5983;49.966;8.052;2022-07-10T12:16:19;25.10;83.10
11848;DHT22;5983;49.966;8.052;2022-07-10T12:18:51;25.10;81.90
11848;DHT22;5983;49.966;8.052;2022-07-10T12:21:25;25.20;82.90
11848;DHT22;5983;49.966;8.052;2022-07-10T12:23:55;25.20;82.40
11848;DHT22;5983;49.966;8.052;2022-07-10T12:26:32;25.20;83.00
11848;DHT22;5983;49.966;8.052;2022-07-10T12:29:11;25.20;82.30
11848;DHT22;5983;49.966;8.052;2022-07-10T12:31:49;25.10;82.30
11848;DHT22;5983;49.966;8.052;2022-07-10T12:34:38;25.00;82.70
11848;DHT22;5983;49.966;8.052;2022-07-10T12:37:10;24.90;82.40
11848;DHT22;5983;49.966;8.052;2022-07-10T12:39:48;24.70;82.60
11848;DHT22;5983;49.966;8.052;2022-07-10T12:42:24;24.60;83.80
11848;DHT22;5983;49.966;8.052;2022-07-10T12:45:09;24.40;84.60
11848;DHT22;5983;49.966;8.052;2022-07-10T12:47:46;24.20;83.80
11848;DHT22;5983;49.966;8.052;2022-07-10T12:50:19;24.00;84.50
11848;DHT22;5983;49.966;8.052;2022-07-10T12:52:49;24.00;85.40
11848;DHT22;5983;49.966;8.052;2022-07-10T12:55:47;24.00;85.40
11848;DHT22;5983;49.966;8.052;2022-07-10T12:58:18;23.90;84.50
11848;DHT22;5983;49.966;8.052;2022-07-10T13:00:55;24.00;85.00
11848;DHT22;5983;49.966;8.052;2022-07-10T13:03:22;24.10;86.20
11848;DHT22;5983;49.966;8.052;2022-07-10T13:05:58;24.30;86.00
11848;DHT22;5983;49.966;8.052;2022-07-10T13:08:49;24.50;84.10
11848;DHT22;5983;49.966;8.052;2022-07-10T13:11:32;24.60;83.50
11848;DHT22;5983;49.966;8.052;2022-07-10T13:14:05;24.80;83.80
11848;DHT22;5983;49.966;8.052;2022-07-10T13:16:35;24.70;83.60
11848;DHT22;5983;49.966;8.052;2022-07-10T13:19:03;24.60;83.60
11848;DHT22;5983;49.966;8.052;2022-07-10T13:21:32;24.60;84.40
11848;DHT22;5983;49.966;8.052;2022-07-10T13:24:07;24.50;85.40
11848;DHT22;5983;49.966;8.052;2022-07-10T13:26:34;24.50;86.70
11848;DHT22;5983;49.966;8.052;2022-07-10T13:29:02;24.30;85.90
11848;DHT22;5983;49.966;8.052;2022-07-10T13:31:29;24.30;85.60
11848;DHT22;5983;49.966;8.052;2022-07-10T13:34:01;24.20;85.60
11848;DHT22;5983;49.966;8.052;2022-07-10T13:36:30;24.10;85.80
11848;DHT22;5983;49.966;8.052;2022-07-10T13:38:59;24.00;85.70
11848;DHT22;5983;49.966;8.052;2022-07-10T13:41:28;23.80;85.90
11848;DHT22;5983;49.966;8.052;2022-07-10T13:43:55;23.70;86.20
11848;DHT22;5983;49.966;8.052;2022-07-10T13:46:24;23.70;86.40
11848;DHT22;5983;49.966;8.052;2022-07-10T13:48:51;23.50;86.70
11848;DHT22;5983;49.966;8.052;2022-07-10T13:51:22;23.50;87.20
11848;DHT22;5983;49.966;8.052;2022-07-10T13:53:53;23.40;87.50
11848;DHT22;5983;49.966;8.052;2022-07-10T13:56:21;23.50;87.80
11848;DHT22;5983;49.966;8.052;2022-07-10T13:58:54;23.80;88.30
11848;DHT22;5983;49.966;8.052;2022-07-10T14:01:21;24.00;88.60
11848;DHT22;5983;49.966;8.052;2022-07-10T14:03:49;24.20;87.80
11848;DHT22;5983;49.966;8.052;2022-07-10T14:06:21;24.20;87.60
11848;DHT22;5983;49.966;8.052;2022-07-10T14:08:50;24.30;87.50
11848;DHT22;5983;49.966;8.052;2022-07-10T14:11:20;24.20;87.40
11848;DHT22;5983;49.966;8.052;2022-07-10T14:13:49;24.30;87.20
11848;DHT22;5983;49.966;8.052;2022-07-10T14:16:19;24.30;86.80
11848;DHT22;5983;49.966;8.052;2022-07-10T14:18:51;24.30;86.40
11848;DHT22;5983;49.966;8.052;2022-07-10T14:21:23;24.20;86.00
11848;DHT22;5983;49.966;8.052;2022-07-10T14:23:56;24.10;85.90
11848;DHT22;5983;49.966;8.052;2022-07-10T14:26:27;23.90;86.50
11848;DHT22;5983;49.966;8.052;2022-07-10T14:28:54;23.70;87.90
11848;DHT22;5983;49.966;8.052;2022-07-10T14:31:24;23.50;88.10
11848;DHT22;5983;49.966;8.052;2022-07-10T14:33:52;23.30;89.10
11848;DHT22;5983;49.966;8.052;2022-07-10T14:36:22;23.20;89.50
11848;DHT22;5983;49.966;8.052;2022-07-10T14:38:53;23.00;89.50
11848;DHT22;5983;49.966;8.052;2022-07-10T14:41:20;23.00;90.20
11848;DHT22;5983;49.966;8.052;2022-07-10T14:43:49;23.00;90.50
11848;DHT22;5983;49.966;8.052;2022-07-10T14:46:18;23.20;90.70
11848;DHT22;5983;49.966;8.052;2022-07-10T14:48:46;23.40;90.40
11848;DHT22;5983;49.966;8.052;2022-07-10T14:51:13;23.70;90.40
11848;DHT22;5983;49.966;8.052;2022-07-10T14:53:40;23.80;90.40
11848;DHT22;5983;49.966;8.052;2022-07-10T14:56:13;24.00;90.00
11848;DHT22;5983;49.966;8.052;2022-07-10T14:58:45;24.10;89.60
11848;DHT22;5983;49.966;8.052;2022-07-10T15:01:14;24.10;89.60
11848;DHT22;5983;49.966;8.052;2022-07-10T15:03:49;24.10;89.70
11848;DHT22;5983;49.966;8.052;2022-07-10T15:06:23;24.00;90.50
11848;DHT22;5983;49.966;8.052;2022-07-10T15:08:51;24.10;90.50
11848;DHT22;5983;49.966;8.052;2022-07-10T15:11:18;24.20;90.10
11848;DHT22;5983;49.966;8.052;2022-07-10T15:13:47;24.20;89.50
11848;DHT22;5983;49.966;8.052;2022-07-10T15:16:20;24.20;89.40
11848;DHT22;5983;49.966;8.052;2022-07-10T15:18:50;24.20;89.80
11848;DHT22;5983;49.966;8.052;2022-07-10T15:21:19;24.10;90.30
11848;DHT22;5983;49.966;8.052;2022-07-10T15:23:51;24.20;90.20
11848;DHT22;5983;49.966;8.052;2022-07-10T15:26:21;24.20;89.50
11848;DHT22;5983;49.966;8.052;2022-07-10T15:28:48;24.20;89.70
11848;DHT22;5983;49.966;8.052;2022-07-10T15:31:17;24.20;90.10
11848;DHT22;5983;49.966;8.052;2022-07-10T15:33:47;24.10;90.50
11848;DHT22;5983;49.966;8.052;2022-07-10T15:36:16;23.90;90.60
11848;DHT22;5983;49.966;8.052;2022-07-10T15:38:45;23.80;90.90
11848;DHT22;5983;49.966;8.052;2022-07-10T15:41:12;23.70;91.00
11848;DHT22;5983;49.966;8.052;2022-07-10T15:43:40;23.80;91.40
11848;DHT22;5983;49.966;8.052;2022-07-10T15:46:18;23.80;91.40
11848;DHT22;5983;49.966;8.052;2022-07-10T15:48:51;23.80;91.60
11848;DHT22;5983;49.966;8.052;2022-07-10T15:51:21;23.70;91.80
11848;DHT22;5983;49.966;8.052;2022-07-10T15:53:50;23.60;91.70
11848;DHT22;5983;49.966;8.052;2022-07-10T15:56:20;23.50;91.60
11848;DHT22;5983;49.966;8.052;2022-07-10T15:58:49;23.30;91.60
11848;DHT22;5983;49.966;8.052;2022-07-10T16:01:27;23.30;92.10
11848;DHT22;5983;49.966;8.052;2022-07-10T16:03:55;23.20;92.40